Time;durP1;ratioP1;P1;durP2;ratioP2;P2;SDS_P1;SDS_P2;PMS_P1;PMS_P2;Temp;Humidity;BMP_temperature;BMP_pressure;BME280_temperature;BME280_humidity;BME280_pressure;Samples;Min_cycle;Max_cycle;Signal;HPM_P1;HPM_P2
2022/07/10 00:01:40;;;;;;;21.33;19.93;;;;;;;;;;5073085;28;20439;-74
2022/07/10 00:04:07;;;;;;;22.57;21.17;;;;;;;;;;5073080;28;20442;-74
2022/07/10 00:06:34;;;;;;;22.27;20.70;;;;;;;;;;5072679;28;20435;-74
2022/07/10 00:09:01;;;;;;;21.60;20.10;;;;;;;;;;5072781;28;20510;-73
2022/07/10 00:11:29;;;;;;;21.77;20.47;;;;;;;;;;5072734;28;20435;-73
2022/07/10 00:13:56;;;;;;;22.43;20.90;;;;;;;;;;5072599;28;20763;-74
2022/07/10 00:16:24;;;;;;;22.20;20.70;;;;;;;;;;5073178;28;20456;-74
2022/07/10 00:18:53;;;;;;;21.50;20.17;;;;;;;;;;5072628;28;20502;-74
2022/07/10 00:21:20;;;;;;;22.17;20.77;;;;;;;;;;5072416;28;20454;-74
2022/07/10 00:23:48;;;;;;;22.00;20.50;;;;;;;;;;5072883;28;20443;-73
2022/07/10 00:26:15;;;;;;;22.13;20.80;;;;;;;;;;5072551;28;20918;-73
2022/07/10 00:28:42;;;;;;;22.23;20.90;;;;;;;;;;5073002;28;20454;-74
2022/07/10 00:31:11;;;;;;;22.57;21.17;;;;;;;;;;5072733;28;20422;-73
2022/07/10 00:33:38;;;;;;;22.20;20.80;;;;;;;;;;5072841;28;20465;-74
2022/07/10 00:36:08;;;;;;;22.90;21.40;;;;;;;;;;5072344;28;20430;-74
2022/07/10 00:38:35;;;;;;;22.67;21.17;;;;;;;;;;5072711;28;20437;-73
2022/07/10 00:41:02;;;;;;;22.60;21.30;;;;;;;;;;5072407;28;20813;-73
2022/07/10 00:43:29;;;;;;;22.97;21.10;;;;;;;;;;5072808;28;20413;-74
2022/07/10 00:45:57;;;;;;;22.47;20.97;;;;;;;;;;5072787;28;20411;-73
2022/07/10 00:48:24;;;;;;;22.50;21.20;;;;;;;;;;5074166;28;20475;-73
2022/07/10 00:50:51;;;;;;;23.17;21.33;;;;;;;;;;5076688;28;20421;-74
2022/07/10 00:53:20;;;;;;;22.60;20.93;;;;;;;;;;5076295;28;20421;-73
2022/07/10 00:55:48;;;;;;;22.13;20.90;;;;;;;;;;5076505;28;20922;-73
2022/07/10 00:58:15;;;;;;;21.53;20.00;;;;;;;;;;5076177;28;20420;-74
2022/07/10 01:00:42;;;;;;;21.50;20.10;;;;;;;;;;5076222;28;20427;-73
2022/07/10 01:03:10;;;;;;;21.40;20.10;;;;;;;;;;5076504;28;20416;-74
2022/07/10 01:05:38;;;;;;;21.50;20.10;;;;;;;;;;5076310;28;20442;-74
2022/07/10 01:08:06;;;;;;;21.40;20.20;;;;;;;;;;5076416;28;20416;-74
2022/07/10 01:10:35;;;;;;;21.00;19.90;;;;;;;;;;5076442;28;20453;-74
2022/07/10 01:13:03;;;;;;;22.33;20.57;;;;;;;;;;5076010;28;20422;-73
2022/07/10 01:15:32;;;;;;;22.33;20.67;;;;;;;;;;5075917;28;20481;-73
2022/07/10 01:18:00;;;;;;;22.33;20.53;;;;;;;;;;5076220;28;20840;-73
2022/07/10 01:20:31;;;;;;;22.03;20.40;;;;;;;;;;5075777;28;20466;-73
2022/07/10 01:23:00;;;;;;;20.87;19.77;;;;;;;;;;5075713;28;20434;-73
2022/07/10 01:25:27;;;;;;;21.50;20.20;;;;;;;;;;5075714;28;20457;-73
2022/07/10 01:27:55;;;;;;;20.47;19.27;;;;;;;;;;5075789;28;20926;-73
2022/07/10 01:30:22;;;;;;;21.60;20.10;;;;;;;;;;5075617;28;20486;-74
2022/07/10 01:32:49;;;;;;;21.00;19.60;;;;;;;;;;5075931;28;20416;-74
2022/07/10 01:35:17;;;;;;;21.60;20.13;;;;;;;;;;5075437;28;20400;-74
2022/07/10 01:37:44;;;;;;;21.10;20.00;;;;;;;;;;5075402;28;20417;-73
2022/07/10 01:40:13;;;;;;;21.03;19.53;;;;;;;;;;5075750;28;20410;-74
2022/07/10 01:42:40;;;;;;;23.73;21.43;;;;;;;;;;5075779;28;20442;-73
2022/07/10 01:45:08;;;;;;;22.10;20.90;;;;;;;;;;5075524;28;20439;-73
2022/07/10 01:47:36;;;;;;;22.30;20.97;;;;;;;;;;5075440;28;20419;-73
2022/07/10 01:50:03;;;;;;;22.10;20.60;;;;;;;;;;5075510;28;20510;-73
2022/07/10 01:52:31;;;;;;;22.40;20.80;;;;;;;;;;5075189;28;20495;-73
2022/07/10 01:54:58;;;;;;;22.07;20.57;;;;;;;;;;5075242;28;20798;-73
2022/07/10 01:57:27;;;;;;;22.50;20.70;;;;;;;;;;5075379;28;20447;-74
2022/07/10 01:59:54;;;;;;;21.80;20.33;;;;;;;;;;5074416;28;20434;-73
2022/07/10 02:02:22;;;;;;;21.67;19.87;;;;;;;;;;5075319;28;20440;-74
2022/07/10 02:04:48;;;;;;;22.17;20.17;;;;;;;;;;5075239;28;20461;-74
2022/07/10 02:07:16;;;;;;;22.10;20.80;;;;;;;;;;5075001;28;20886;-73
2022/07/10 02:09:44;;;;;;;21.27;19.90;;;;;;;;;;5075293;28;20505;-73
2022/07/10 02:12:12;;;;;;;21.60;20.10;;;;;;;;;;5075223;28;20414;-73
2022/07/10 02:14:41;;;;;;;21.37;19.80;;;;;;;;;;5075078;28;20446;-74
2022/07/10 02:17:08;;;;;;;21.27;20.07;;;;;;;;;;5074760;28;21009;-73
2022/07/10 02:19:36;;;;;;;20.63;19.33;;;;;;;;;;5074528;28;20414;-73
2022/07/10 02:22:04;;;;;;;21.30;19.77;;;;;;;;;;5074611;28;20450;-73
2022/07/10 02:24:31;;;;;;;21.97;20.40;;;;;;;;;;5074894;28;20464;-73
2022/07/10 02:26:59;;;;;;;20.83;19.43;;;;;;;;;;5074954;28;20413;-73
2022/07/10 02:29:26;;;;;;;21.33;19.83;;;;;;;;;;5074991;28;21015;-73
2022/07/10 02:31:55;;;;;;;22.30;20.40;;;;;;;;;;5074516;28;20442;-73
2022/07/10 02:34:22;;;;;;;21.87;20.47;;;;;;;;;;5074792;28;20441;-73
2022/07/10 02:36:50;;;;;;;22.00;20.60;;;;;;;;;;5074805;28;20417;-73
2022/07/10 02:39:18;;;;;;;21.60;20.13;;;;;;;;;;5074307;28;20527;-74
2022/07/10 02:41:46;;;;;;;20.83;19.50;;;;;;;;;;5074262;28;20413;-74
2022/07/10 02:44:13;;;;;;;20.83;19.23;;;;;;;;;;5074389;28;20747;-73
2022/07/10 02:46:40;;;;;;;20.80;19.47;;;;;;;;;;5074488;28;20424;-74
2022/07/10 02:49:09;;;;;;;20.87;19.47;;;;;;;;;;5074117;28;20448;-74
2022/07/10 02:51:36;;;;;;;20.53;18.93;;;;;;;;;;5074347;28;20808;-73
2022/07/10 02:54:03;;;;;;;21.10;19.47;;;;;;;;;;5074244;28;20413;-73
2022/07/10 02:56:31;;;;;;;22.07;20.20;;;;;;;;;;5074199;28;20485;-74
2022/07/10 02:58:58;;;;;;;21.40;19.97;;;;;;;;;;5074192;28;20432;-73
2022/07/10 03:01:26;;;;;;;20.97;19.67;;;;;;;;;;5073869;28;20875;-74
2022/07/10 03:03:53;;;;;;;20.83;19.43;;;;;;;;;;5073869;28;20422;-73
2022/07/10 03:06:22;;;;;;;22.90;20.97;;;;;;;;;;5073776;28;20888;-73
2022/07/10 03:08:49;;;;;;;21.83;20.13;;;;;;;;;;5073837;28;20450;-74
2022/07/10 03:11:16;;;;;;;21.43;19.73;;;;;;;;;;5073137;28;20788;-74
2022/07/10 03:13:44;;;;;;;20.80;19.57;;;;;;;;;;5074111;28;20410;-73
2022/07/10 03:16:11;;;;;;;21.10;19.70;;;;;;;;;;5074164;28;20437;-74
2022/07/10 03:18:38;;;;;;;22.70;20.80;;;;;;;;;;5073342;28;20441;-73
2022/07/10 03:21:06;;;;;;;22.80;20.80;;;;;;;;;;5073604;28;20454;-74
2022/07/10 03:23:34;;;;;;;21.73;20.30;;;;;;;;;;5073486;28;20439;-73
2022/07/10 03:26:02;;;;;;;21.30;19.77;;;;;;;;;;5073386;28;21086;-73
2022/07/10 03:28:29;;;;;;;22.17;20.60;;;;;;;;;;5073632;28;20434;-73
2022/07/10 03:30:56;;;;;;;20.93;19.63;;;;;;;;;;5073253;28;20925;-74
2022/07/10 03:33:24;;;;;;;20.93;19.53;;;;;;;;;;5072267;28;20901;-74
2022/07/10 03:35:51;;;;;;;21.40;19.90;;;;;;;;;;5073574;28;20414;-74
2022/07/10 03:38:18;;;;;;;21.43;19.83;;;;;;;;;;5073545;28;20434;-74
2022/07/10 03:40:48;;;;;;;20.67;19.37;;;;;;;;;;5073135;28;20435;-74
2022/07/10 03:43:15;;;;;;;20.70;19.53;;;;;;;;;;5071787;28;20875;-74
2022/07/10 03:45:42;;;;;;;22.23;20.70;;;;;;;;;;5073201;28;20488;-77
2022/07/10 03:48:10;;;;;;;20.80;19.50;;;;;;;;;;5073089;28;20496;-75
2022/07/10 03:50:37;;;;;;;21.43;20.03;;;;;;;;;;5082106;28;20486;-73
2022/07/10 03:53:04;;;;;;;21.03;19.63;;;;;;;;;;5082541;28;20483;-72
2022/07/10 03:55:32;;;;;;;22.03;20.33;;;;;;;;;;5083559;28;21304;-72
2022/07/10 03:58:02;;;;;;;22.70;20.80;;;;;;;;;;5081034;28;20442;-71
2022/07/10 04:00:31;;;;;;;23.03;21.47;;;;;;;;;;5083328;28;20984;-71
2022/07/10 04:02:59;;;;;;;21.67;20.37;;;;;;;;;;5083565;28;20459;-71
2022/07/10 04:05:27;;;;;;;21.10;19.90;;;;;;;;;;5078443;28;20408;-71
2022/07/10 04:07:54;;;;;;;22.77;21.10;;;;;;;;;;5072670;28;20925;-71
2022/07/10 04:10:21;;;;;;;20.03;18.93;;;;;;;;;;5072677;28;20507;-71
2022/07/10 04:12:49;;;;;;;21.07;19.23;;;;;;;;;;5073010;28;20405;-71
2022/07/10 04:15:17;;;;;;;21.23;19.90;;;;;;;;;;5072998;28;20414;-70
2022/07/10 04:17:45;;;;;;;21.37;19.70;;;;;;;;;;5072290;28;20456;-71
2022/07/10 04:20:12;;;;;;;21.77;20.13;;;;;;;;;;5072629;28;20452;-71
2022/07/10 04:22:40;;;;;;;22.00;20.30;;;;;;;;;;5072552;28;20418;-71
2022/07/10 04:25:07;;;;;;;20.93;19.67;;;;;;;;;;5072540;28;20410;-70
2022/07/10 04:27:35;;;;;;;20.53;19.10;;;;;;;;;;5072875;28;20413;-71
2022/07/10 04:30:02;;;;;;;20.93;19.13;;;;;;;;;;5072715;28;20456;-71
2022/07/10 04:32:31;;;;;;;20.23;18.83;;;;;;;;;;5072518;28;20933;-71
2022/07/10 04:34:59;;;;;;;20.50;19.17;;;;;;;;;;5072798;28;20497;-71
2022/07/10 04:37:26;;;;;;;20.40;19.20;;;;;;;;;;5072366;28;20441;-71
2022/07/10 04:39:53;;;;;;;21.73;20.03;;;;;;;;;;5072471;28;20443;-71
2022/07/10 04:42:21;;;;;;;21.03;19.50;;;;;;;;;;5072244;28;20443;-71
2022/07/10 04:44:48;;;;;;;19.83;18.60;;;;;;;;;;5072531;28;20902;-71
2022/07/10 04:47:15;;;;;;;21.07;19.37;;;;;;;;;;5072584;28;20438;-71
2022/07/10 04:49:44;;;;;;;21.20;19.67;;;;;;;;;;5072505;28;20441;-71
2022/07/10 04:52:11;;;;;;;20.73;19.43;;;;;;;;;;5072188;28;20812;-72
2022/07/10 04:54:38;;;;;;;20.83;19.60;;;;;;;;;;5072664;28;20736;-71
2022/07/10 04:57:06;;;;;;;20.30;19.00;;;;;;;;;;5072200;28;20429;-71
2022/07/10 04:59:33;;;;;;;20.10;18.90;;;;;;;;;;5072423;28;20442;-71
2022/07/10 05:02:01;;;;;;;21.33;19.83;;;;;;;;;;5072771;28;20409;-71
2022/07/10 05:04:28;;;;;;;20.50;19.00;;;;;;;;;;5072461;28;20424;-72
2022/07/10 05:06:57;;;;;;;20.40;19.00;;;;;;;;;;5072446;28;20416;-71
2022/07/10 05:09:24;;;;;;;20.47;19.07;;;;;;;;;;5072090;28;20431;-71
2022/07/10 05:11:51;;;;;;;21.33;20.13;;;;;;;;;;5072031;28;20514;-71
2022/07/10 05:14:18;;;;;;;21.10;19.70;;;;;;;;;;5068457;28;20437;-71
2022/07/10 05:16:46;;;;;;;20.50;19.23;;;;;;;;;;5069429;28;20481;-71
2022/07/10 05:19:13;;;;;;;22.23;20.70;;;;;;;;;;5073760;28;20495;-75
2022/07/10 05:21:40;;;;;;;22.27;20.47;;;;;;;;;;5092119;28;20489;-74
2022/07/10 05:24:09;;;;;;;21.33;19.93;;;;;;;;;;5092570;28;20437;-69
2022/07/10 05:26:36;;;;;;;22.43;20.93;;;;;;;;;;5092505;28;20432;-71
2022/07/10 05:29:04;;;;;;;21.17;19.63;;;;;;;;;;5092713;28;20443;-79
2022/07/10 05:31:31;;;;;;;22.37;20.87;;;;;;;;;;5089374;28;20491;-73
2022/07/10 05:33:58;;;;;;;22.80;21.40;;;;;;;;;;5075655;28;20439;-75
2022/07/10 05:36:26;;;;;;;22.97;21.43;;;;;;;;;;5089572;28;20504;-74
2022/07/10 05:38:53;;;;;;;20.80;19.30;;;;;;;;;;5076930;28;20474;-71
2022/07/10 05:41:22;;;;;;;21.53;20.20;;;;;;;;;;5075745;28;20757;-70
2022/07/10 05:43:49;;;;;;;20.93;19.63;;;;;;;;;;5075677;28;20437;-69
2022/07/10 05:46:16;;;;;;;21.40;19.77;;;;;;;;;;5075254;28;20444;-73
2022/07/10 05:48:44;;;;;;;21.00;19.73;;;;;;;;;;5075032;28;20424;-74
2022/07/10 05:51:11;;;;;;;20.70;19.40;;;;;;;;;;5075134;28;20457;-72
2022/07/10 05:53:39;;;;;;;21.17;19.87;;;;;;;;;;5086970;28;20498;-72
2022/07/10 05:56:06;;;;;;;21.27;19.93;;;;;;;;;;5095819;28;20439;-72
2022/07/10 05:58:35;;;;;;;21.60;20.10;;;;;;;;;;5095574;28;20388;-71
2022/07/10 06:01:02;;;;;;;21.80;20.60;;;;;;;;;;5095630;28;20434;-72
2022/07/10 06:03:30;;;;;;;22.67;21.03;;;;;;;;;;5095556;28;20408;-72
2022/07/10 06:05:58;;;;;;;21.40;19.80;;;;;;;;;;5095531;28;20426;-71
2022/07/10 06:08:25;;;;;;;20.20;19.10;;;;;;;;;;5095318;28;20409;-72
2022/07/10 06:10:52;;;;;;;21.10;19.50;;;;;;;;;;5095075;28;20924;-71
2022/07/10 06:13:20;;;;;;;21.23;19.83;;;;;;;;;;5095152;28;20420;-72
2022/07/10 06:15:49;;;;;;;21.27;19.70;;;;;;;;;;5095527;28;20499;-71
2022/07/10 06:18:16;;;;;;;22.20;20.53;;;;;;;;;;5095040;28;20945;-71
2022/07/10 06:20:43;;;;;;;20.70;19.40;;;;;;;;;;5094998;28;20823;-71
2022/07/10 06:23:11;;;;;;;21.40;19.90;;;;;;;;;;5094910;28;20443;-72
2022/07/10 06:25:38;;;;;;;21.43;19.93;;;;;;;;;;5095064;28;20416;-71
2022/07/10 06:28:05;;;;;;;22.07;20.50;;;;;;;;;;5094797;28;20775;-71
2022/07/10 06:30:33;;;;;;;21.70;20.30;;;;;;;;;;5095188;28;20457;-72
2022/07/10 06:33:01;;;;;;;22.07;20.43;;;;;;;;;;5094736;28;20413;-71
2022/07/10 06:35:29;;;;;;;22.57;21.00;;;;;;;;;;5095190;28;20435;-72
2022/07/10 06:37:56;;;;;;;21.20;20.10;;;;;;;;;;5094498;28;20413;-72
2022/07/10 06:40:23;;;;;;;22.50;20.87;;;;;;;;;;5094558;28;20422;-71
2022/07/10 06:42:51;;;;;;;21.80;20.20;;;;;;;;;;5094821;28;20776;-71
2022/07/10 06:45:18;;;;;;;21.33;20.10;;;;;;;;;;5094565;28;20437;-72
2022/07/10 06:47:57;;;;;;;21.60;20.10;;;;;;;;;;5094530;28;20496;-71
2022/07/10 06:50:26;;;;;;;21.67;20.10;;;;;;;;;;5094549;28;20451;-71
2022/07/10 06:52:54;;;;;;;21.70;20.20;;;;;;;;;;5094573;28;20413;-72
2022/07/10 06:55:21;;;;;;;21.37;20.07;;;;;;;;;;5094619;28;20439;-71
2022/07/10 06:57:48;;;;;;;22.80;21.27;;;;;;;;;;5094480;28;20416;-71
2022/07/10 07:00:16;;;;;;;21.73;20.20;;;;;;;;;;5094583;28;20779;-70
2022/07/10 07:02:44;;;;;;;21.90;20.40;;;;;;;;;;5094216;28;20409;-70
2022/07/10 07:05:11;;;;;;;21.20;19.80;;;;;;;;;;5094060;28;20419;-70
2022/07/10 07:07:40;;;;;;;21.77;20.40;;;;;;;;;;5093951;28;20743;-70
2022/07/10 07:10:08;;;;;;;21.50;20.00;;;;;;;;;;5093831;28;20499;-71
2022/07/10 07:12:35;;;;;;;21.97;20.30;;;;;;;;;;5094186;28;20420;-72
2022/07/10 07:15:03;;;;;;;24.37;21.70;;;;;;;;;;5094198;28;20424;-71
2022/07/10 07:17:35;;;;;;;22.33;20.53;;;;;;;;;;5093914;28;20801;-71
2022/07/10 07:25:34;;;;;;;23.37;21.10;;;;;;;;;;5094038;28;20431;-71
2022/07/10 07:28:02;;;;;;;21.57;20.07;;;;;;;;;;5093877;28;20410;-71
2022/07/10 07:30:30;;;;;;;22.40;20.80;;;;;;;;;;5093450;28;20937;-80
2022/07/10 07:32:57;;;;;;;22.17;20.47;;;;;;;;;;5093486;28;21284;-71
2022/07/10 07:35:25;;;;;;;22.00;20.80;;;;;;;;;;5093430;28;20933;-72
2022/07/10 07:37:53;;;;;;;21.27;19.87;;;;;;;;;;5093269;28;20431;-71
2022/07/10 07:40:22;;;;;;;22.50;20.80;;;;;;;;;;5093617;28;20415;-71
2022/07/10 07:42:50;;;;;;;21.13;19.50;;;;;;;;;;5093640;28;20434;-70
2022/07/10 07:45:18;;;;;;;21.20;19.90;;;;;;;;;;5093494;28;20497;-71
2022/07/10 07:47:46;;;;;;;22.17;20.20;;;;;;;;;;5093041;28;20411;-71
2022/07/10 07:50:14;;;;;;;22.13;20.50;;;;;;;;;;5093335;28;20496;-71
2022/07/10 07:52:41;;;;;;;21.97;20.50;;;;;;;;;;5093360;28;20928;-71
2022/07/10 07:55:11;;;;;;;21.87;20.27;;;;;;;;;;5093284;28;20435;-71
2022/07/10 07:57:38;;;;;;;23.20;21.30;;;;;;;;;;5092614;28;20438;-71
2022/07/10 08:00:07;;;;;;;23.47;21.90;;;;;;;;;;5093140;28;20796;-71
2022/07/10 08:02:34;;;;;;;23.70;21.77;;;;;;;;;;5092736;28;20444;-70
2022/07/10 08:05:02;;;;;;;23.87;21.87;;;;;;;;;;5093204;28;20822;-72
2022/07/10 08:07:35;;;;;;;22.10;20.80;;;;;;;;;;5087154;28;20471;-71
2022/07/10 08:10:02;;;;;;;23.00;21.40;;;;;;;;;;5082514;28;20505;-72
2022/07/10 08:12:31;;;;;;;22.40;21.10;;;;;;;;;;5092895;28;20541;-70
2022/07/10 08:14:59;;;;;;;22.07;20.77;;;;;;;;;;5092693;28;20411;-72
2022/07/10 08:17:26;;;;;;;22.43;20.83;;;;;;;;;;5092483;28;20500;-72
2022/07/10 08:19:53;;;;;;;21.83;20.53;;;;;;;;;;5092776;28;20478;-79
2022/07/10 08:22:21;;;;;;;21.97;20.30;;;;;;;;;;5093146;28;20452;-72
2022/07/10 08:24:48;;;;;;;22.60;20.70;;;;;;;;;;5092782;28;20443;-71
2022/07/10 08:27:15;;;;;;;22.97;21.07;;;;;;;;;;5092829;28;20435;-71
2022/07/10 08:29:44;;;;;;;22.80;21.30;;;;;;;;;;5092623;28;20448;-71
2022/07/10 08:32:12;;;;;;;24.80;23.00;;;;;;;;;;5092958;28;20464;-70
2022/07/10 08:34:39;;;;;;;23.83;21.40;;;;;;;;;;5092901;28;20424;-70
2022/07/10 08:37:07;;;;;;;24.40;22.50;;;;;;;;;;5092370;28;20438;-70
2022/07/10 08:39:34;;;;;;;23.37;21.80;;;;;;;;;;5092584;28;20448;-71
2022/07/10 08:42:02;;;;;;;22.60;20.60;;;;;;;;;;5092672;28;20472;-71
2022/07/10 08:44:30;;;;;;;23.60;21.70;;;;;;;;;;5092274;28;20443;-71
2022/07/10 08:46:59;;;;;;;22.87;21.37;;;;;;;;;;5092308;28;20441;-71
2022/07/10 08:49:28;;;;;;;23.33;21.83;;;;;;;;;;5092517;28;20412;-71
2022/07/10 08:51:58;;;;;;;23.57;21.73;;;;;;;;;;5092236;28;20544;-71
2022/07/10 08:54:30;;;;;;;22.67;21.23;;;;;;;;;;5092542;28;20436;-70
2022/07/10 08:56:58;;;;;;;22.20;20.60;;;;;;;;;;5092204;28;20435;-71
2022/07/10 08:59:25;;;;;;;22.73;21.30;;;;;;;;;;5092480;28;20446;-70
2022/07/10 09:01:53;;;;;;;22.63;21.33;;;;;;;;;;5092354;28;20409;-71
2022/07/10 09:04:23;;;;;;;23.60;22.00;;;;;;;;;;5092489;28;20433;-72
2022/07/10 09:06:52;;;;;;;23.07;21.27;;;;;;;;;;5092269;28;20844;-71
2022/07/10 09:09:19;;;;;;;23.50;21.80;;;;;;;;;;5092093;28;20429;-71
2022/07/10 09:11:47;;;;;;;22.30;21.00;;;;;;;;;;5096252;28;20506;-71
2022/07/10 09:14:16;;;;;;;23.23;21.67;;;;;;;;;;5095996;28;20420;-70
2022/07/10 09:16:44;;;;;;;23.13;21.63;;;;;;;;;;5096433;28;20511;-72
2022/07/10 09:19:19;;;;;;;23.57;22.07;;;;;;;;;;5096282;28;20902;-72
2022/07/10 09:21:49;;;;;;;23.70;22.10;;;;;;;;;;5095871;28;20802;-71
2022/07/10 09:24:19;;;;;;;22.97;21.53;;;;;;;;;;5096102;28;20439;-71
2022/07/10 09:26:59;;;;;;;24.33;22.53;;;;;;;;;;5095875;28;20417;-71
2022/07/10 09:29:26;;;;;;;22.50;21.10;;;;;;;;;;5096039;28;20457;-72
2022/07/10 09:31:54;;;;;;;23.03;21.43;;;;;;;;;;5095801;28;20479;-72
2022/07/10 09:34:36;;;;;;;22.03;20.70;;;;;;;;;;5096137;28;20466;-71
2022/07/10 09:40:00;;;;;;;24.97;23.13;;;;;;;;;;5110699;27;20553;-72
2022/07/10 09:42:28;;;;;;;22.47;20.97;;;;;;;;;;5110548;28;20453;-73
2022/07/10 09:45:15;;;;;;;21.80;20.30;;;;;;;;;;5110614;28;20407;-72
2022/07/10 09:47:44;;;;;;;21.20;19.80;;;;;;;;;;5110316;28;20434;-71
2022/07/10 09:50:21;;;;;;;22.00;20.67;;;;;;;;;;5110465;28;20442;-72
2022/07/10 09:52:50;;;;;;;22.30;20.90;;;;;;;;;;5110205;28;20417;-72
2022/07/10 09:55:20;;;;;;;22.43;20.73;;;;;;;;;;5110317;28;20435;-71
2022/07/10 09:57:50;;;;;;;22.00;20.60;;;;;;;;;;5110408;28;20413;-72
2022/07/10 10:00:18;;;;;;;24.43;22.17;;;;;;;;;;5110369;28;20470;-71
2022/07/10 10:02:46;;;;;;;21.93;20.43;;;;;;;;;;5110431;28;20434;-72
2022/07/10 10:05:13;;;;;;;23.30;21.80;;;;;;;;;;5110031;28;20791;-72
2022/07/10 10:07:41;;;;;;;22.57;21.07;;;;;;;;;;5109938;28;20452;-72
2022/07/10 10:10:12;;;;;;;22.83;21.20;;;;;;;;;;5110196;28;20445;-72
2022/07/10 10:12:43;;;;;;;23.27;21.83;;;;;;;;;;5109876;28;20409;-72
2022/07/10 10:15:12;;;;;;;21.83;20.53;;;;;;;;;;5109687;28;20402;-72
2022/07/10 10:17:40;;;;;;;23.17;21.23;;;;;;;;;;5109840;28;20478;-71
2022/07/10 10:22:55;;;;;;;22.30;20.80;;;;;;;;;;5109523;28;20841;-72
2022/07/10 10:25:22;;;;;;;22.90;21.10;;;;;;;;;;5109519;28;20415;-72
2022/07/10 10:27:51;;;;;;;22.43;20.50;;;;;;;;;;5109891;28;20442;-73
2022/07/10 10:30:19;;;;;;;22.20;20.53;;;;;;;;;;5109719;28;20439;-72
2022/07/10 10:32:46;;;;;;;21.77;20.20;;;;;;;;;;5109793;28;20443;-71
2022/07/10 10:35:35;;;;;;;21.97;20.57;;;;;;;;;;5109233;28;20484;-72
2022/07/10 10:38:02;;;;;;;22.93;21.40;;;;;;;;;;5109196;28;20483;-72
2022/07/10 10:40:33;;;;;;;23.80;21.63;;;;;;;;;;5109714;28;20417;-75
2022/07/10 10:43:16;;;;;;;22.37;20.57;;;;;;;;;;5109715;28;20428;-72
2022/07/10 10:45:44;;;;;;;22.03;20.53;;;;;;;;;;5109242;28;20940;-72
2022/07/10 10:48:12;;;;;;;22.20;20.80;;;;;;;;;;5108412;28;20445;-71
2022/07/10 10:50:41;;;;;;;22.57;21.13;;;;;;;;;;5091503;28;20548;-72
2022/07/10 10:53:16;;;;;;;21.73;20.13;;;;;;;;;;5095502;28;20451;-71
2022/07/10 10:56:03;;;;;;;22.10;20.47;;;;;;;;;;5084712;28;20438;-74
2022/07/10 10:58:39;;;;;;;22.80;21.00;;;;;;;;;;5085352;28;20514;-72
2022/07/10 11:01:06;;;;;;;22.70;21.27;;;;;;;;;;5075086;28;20417;-72
2022/07/10 11:03:34;;;;;;;22.07;20.67;;;;;;;;;;5075330;28;20439;-71
2022/07/10 11:06:04;;;;;;;23.23;21.13;;;;;;;;;;5074922;28;20916;-71
2022/07/10 11:08:41;;;;;;;22.53;20.83;;;;;;;;;;5088482;28;20429;-72
2022/07/10 11:11:39;;;;;;;23.27;21.87;;;;;;;;;;5095171;28;20942;-70
2022/07/10 11:14:09;;;;;;;22.30;20.87;;;;;;;;;;5032731;28;20804;-69
2022/07/10 11:16:37;;;;;;;22.00;20.10;;;;;;;;;;5015220;28;21003;-71
2022/07/10 11:19:04;;;;;;;21.20;20.00;;;;;;;;;;5032500;28;20492;-76
2022/07/10 11:21:40;;;;;;;20.63;19.43;;;;;;;;;;5032653;28;20914;-71
2022/07/10 11:24:11;;;;;;;20.57;19.33;;;;;;;;;;5032460;28;20440;-70
2022/07/10 11:26:49;;;;;;;22.20;20.87;;;;;;;;;;5032463;28;20430;-70
2022/07/10 11:29:19;;;;;;;22.00;20.70;;;;;;;;;;5032561;28;20420;-71
2022/07/10 11:31:53;;;;;;;22.73;21.13;;;;;;;;;;5032362;28;20762;-70
2022/07/10 11:34:22;;;;;;;21.03;19.63;;;;;;;;;;5032352;28;20415;-70
2022/07/10 11:36:49;;;;;;;20.73;19.53;;;;;;;;;;5032308;28;20401;-71
2022/07/10 11:39:17;;;;;;;20.90;19.70;;;;;;;;;;5031951;28;20573;-71
2022/07/10 11:41:45;;;;;;;21.70;20.30;;;;;;;;;;5032245;28;20510;-71
2022/07/10 11:44:16;;;;;;;20.60;19.50;;;;;;;;;;5032208;28;20500;-71
2022/07/10 11:46:46;;;;;;;20.80;19.67;;;;;;;;;;5032142;28;20503;-71
2022/07/10 11:49:14;;;;;;;21.00;19.90;;;;;;;;;;5069842;28;20506;-71
2022/07/10 11:51:42;;;;;;;21.00;19.87;;;;;;;;;;5074482;28;20437;-71
2022/07/10 11:54:11;;;;;;;20.37;19.10;;;;;;;;;;5072594;28;20814;-71
2022/07/10 11:56:41;;;;;;;20.37;19.30;;;;;;;;;;5074299;28;20451;-70
2022/07/10 11:59:09;;;;;;;20.03;18.93;;;;;;;;;;5074212;28;20489;-71
2022/07/10 12:01:42;;;;;;;19.80;18.60;;;;;;;;;;5073106;28;20423;-71
2022/07/10 12:04:14;;;;;;;20.00;18.83;;;;;;;;;;5073865;28;20527;-70
2022/07/10 12:06:43;;;;;;;20.20;19.10;;;;;;;;;;5073508;28;20479;-71
2022/07/10 12:09:12;;;;;;;19.03;18.03;;;;;;;;;;5092493;28;20590;-71
2022/07/10 12:11:40;;;;;;;20.00;18.73;;;;;;;;;;5093979;28;20447;-70
2022/07/10 12:14:11;;;;;;;19.77;18.77;;;;;;;;;;5094148;28;20408;-70
2022/07/10 12:16:39;;;;;;;19.77;18.73;;;;;;;;;;5093862;28;20506;-70
2022/07/10 12:19:08;;;;;;;20.97;19.47;;;;;;;;;;5093911;28;20470;-72
2022/07/10 12:21:36;;;;;;;19.87;18.80;;;;;;;;;;5092467;28;21017;-71
2022/07/10 12:24:04;;;;;;;20.37;19.27;;;;;;;;;;5093722;28;20479;-70
2022/07/10 12:26:35;;;;;;;20.40;19.30;;;;;;;;;;5093911;28;20803;-71
2022/07/10 12:29:03;;;;;;;21.10;19.90;;;;;;;;;;5093759;28;20413;-71
2022/07/10 12:31:32;;;;;;;20.90;19.70;;;;;;;;;;5093942;28;20446;-71
2022/07/10 12:34:01;;;;;;;21.23;19.93;;;;;;;;;;5093533;28;20501;-70
2022/07/10 12:36:42;;;;;;;21.03;19.70;;;;;;;;;;5093722;28;20438;-71
2022/07/10 12:39:11;;;;;;;21.33;19.93;;;;;;;;;;5093266;28;20504;-71
2022/07/10 12:41:53;;;;;;;20.73;19.43;;;;;;;;;;5093351;28;20507;-70
2022/07/10 12:44:31;;;;;;;21.27;19.97;;;;;;;;;;5093641;28;20416;-71
2022/07/10 12:47:01;;;;;;;21.20;19.93;;;;;;;;;;5093540;28;20409;-71
2022/07/10 12:49:29;;;;;;;22.23;20.80;;;;;;;;;;5093385;28;20422;-71
2022/07/10 12:51:57;;;;;;;21.60;20.33;;;;;;;;;;5093514;28;20418;-71
2022/07/10 12:54:38;;;;;;;22.70;21.37;;;;;;;;;;5093498;28;20437;-71
2022/07/10 12:57:06;;;;;;;21.10;19.73;;;;;;;;;;5093253;28;20767;-71
2022/07/10 12:59:34;;;;;;;20.87;19.67;;;;;;;;;;5093414;28;20539;-71
2022/07/10 13:02:15;;;;;;;20.40;19.10;;;;;;;;;;5093173;28;20448;-71
2022/07/10 13:04:52;;;;;;;20.20;19.20;;;;;;;;;;5093074;28;20411;-71
2022/07/10 13:07:21;;;;;;;20.80;19.50;;;;;;;;;;5093124;28;20456;-71
2022/07/10 13:09:51;;;;;;;20.03;18.90;;;;;;;;;;5093360;28;20420;-71
2022/07/10 13:12:18;;;;;;;20.00;19.00;;;;;;;;;;5092951;28;20456;-71
2022/07/10 13:14:46;;;;;;;20.20;19.20;;;;;;;;;;5092782;28;20419;-71
2022/07/10 13:17:13;;;;;;;19.20;18.30;;;;;;;;;;5092778;28;20537;-70
2022/07/10 13:19:40;;;;;;;19.33;18.33;;;;;;;;;;5092703;28;20902;-70
2022/07/10 13:22:08;;;;;;;19.93;18.90;;;;;;;;;;5093182;28;20414;-71
2022/07/10 13:24:35;;;;;;;19.27;18.37;;;;;;;;;;5093134;28;20434;-71
2022/07/10 13:27:04;;;;;;;20.30;19.17;;;;;;;;;;5092917;28;20459;-70
2022/07/10 13:29:31;;;;;;;19.27;18.07;;;;;;;;;;5093101;28;20756;-70
2022/07/10 13:31:58;;;;;;;19.07;18.07;;;;;;;;;;5093060;28;20442;-71
2022/07/10 13:34:26;;;;;;;18.70;17.67;;;;;;;;;;5092658;28;20452;-71
2022/07/10 13:36:54;;;;;;;19.30;18.30;;;;;;;;;;5092577;28;20410;-71
2022/07/10 13:39:21;;;;;;;18.73;17.83;;;;;;;;;;5072246;28;20540;-71
2022/07/10 13:41:48;;;;;;;19.00;18.10;;;;;;;;;;5072493;28;20420;-70
2022/07/10 13:44:17;;;;;;;18.87;17.97;;;;;;;;;;5072366;28;20415;-71
2022/07/10 13:46:45;;;;;;;19.23;18.33;;;;;;;;;;5071547;28;20800;-71
2022/07/10 13:49:12;;;;;;;18.57;17.67;;;;;;;;;;5071417;28;20872;-71
2022/07/10 13:51:39;;;;;;;19.63;18.70;;;;;;;;;;5072416;28;20411;-71
2022/07/10 13:54:07;;;;;;;18.90;18.00;;;;;;;;;;5072259;28;20455;-71
2022/07/10 13:56:40;;;;;;;19.40;18.50;;;;;;;;;;5072432;28;20511;-70
2022/07/10 13:59:08;;;;;;;20.10;18.77;;;;;;;;;;5072043;28;20773;-70
2022/07/10 14:01:36;;;;;;;20.03;19.03;;;;;;;;;;5072453;28;20893;-70
2022/07/10 14:04:04;;;;;;;20.13;19.03;;;;;;;;;;5072492;28;20422;-70
2022/07/10 14:06:31;;;;;;;19.60;18.70;;;;;;;;;;5072572;28;20443;-71
2022/07/10 14:08:58;;;;;;;20.83;19.83;;;;;;;;;;5089428;28;20432;-70
2022/07/10 14:11:26;;;;;;;20.13;19.23;;;;;;;;;;5092258;28;20445;-71
2022/07/10 14:13:53;;;;;;;20.13;19.13;;;;;;;;;;5092591;28;20424;-71
2022/07/10 14:16:20;;;;;;;19.93;18.87;;;;;;;;;;5091898;28;20469;-71
2022/07/10 14:18:49;;;;;;;19.67;18.77;;;;;;;;;;5092164;28;21199;-71
2022/07/10 14:21:17;;;;;;;20.77;19.77;;;;;;;;;;5092134;28;20448;-71
2022/07/10 14:23:44;;;;;;;18.73;17.80;;;;;;;;;;5092278;28;20803;-72
2022/07/10 14:26:12;;;;;;;18.90;18.00;;;;;;;;;;5095269;28;20473;-71
2022/07/10 14:28:39;;;;;;;19.80;18.80;;;;;;;;;;5096406;28;20410;-72
2022/07/10 14:31:07;;;;;;;19.73;18.73;;;;;;;;;;5096151;28;20442;-71
2022/07/10 14:33:36;;;;;;;19.73;18.70;;;;;;;;;;5095946;28;20445;-71
2022/07/10 14:36:06;;;;;;;19.93;18.70;;;;;;;;;;5096109;28;20439;-70